createdAt,value
2023-02-28T00:01:28.224Z,58.39
2023-02-28T00:03:55.029Z,60.55
2023-02-28T00:06:21.649Z,62.05
2023-02-28T00:08:48.862Z,66.04
2023-02-28T00:11:17.061Z,69.35
2023-02-28T00:13:46.960Z,68.10
2023-02-28T00:16:20.871Z,66.27
2023-02-28T00:18:48.647Z,65.67
2023-02-28T00:21:17.311Z,64.18
2023-02-28T00:23:44.279Z,63.26
2023-02-28T00:26:10.917Z,62.89
2023-02-28T00:28:37.689Z,62.54
2023-02-28T00:31:05.114Z,62.12
2023-02-28T00:33:31.636Z,61.77
2023-02-28T00:36:08.462Z,61.45
2023-02-28T00:38:34.983Z,60.90
2023-02-28T00:41:04.900Z,60.40
2023-02-28T00:43:37.117Z,59.87
2023-02-28T00:46:04.973Z,57.49
2023-02-28T00:48:32.457Z,56.75
2023-02-28T00:50:59.134Z,58.14
2023-02-28T00:53:25.857Z,59.61
2023-02-28T00:55:52.600Z,60.71
2023-02-28T00:58:19.317Z,63.76
2023-02-28T01:00:49.534Z,67.84
2023-02-28T01:03:18.813Z,68.04
2023-02-28T01:05:46.591Z,66.29
2023-02-28T01:08:14.364Z,65.01
2023-02-28T01:10:41.636Z,64.69
2023-02-28T01:13:08.484Z,63.91
2023-02-28T01:15:35.078Z,63.69
2023-02-28T01:18:01.734Z,63.13
2023-02-28T01:20:28.260Z,62.55
2023-02-28T01:22:54.811Z,62.22
2023-02-28T01:25:21.268Z,62.09
2023-02-28T01:27:47.711Z,61.91
2023-02-28T01:30:14.866Z,61.21
2023-02-28T01:32:41.273Z,60.63
2023-02-28T01:35:08.144Z,60.65
2023-02-28T01:37:34.523Z,61.00
2023-02-28T01:40:00.979Z,60.11
2023-02-28T01:42:27.433Z,59.91
2023-02-28T01:45:30.305Z,61.32
2023-02-28T01:48:05.938Z,61.31
2023-02-28T01:50:41.585Z,61.57
2023-02-28T01:53:18.069Z,62.00
2023-02-28T01:55:50.230Z,61.85
2023-02-28T01:58:16.986Z,62.18
2023-02-28T02:00:43.361Z,62.60
2023-02-28T02:03:17.173Z,62.41
2023-02-28T02:05:48.004Z,61.94
2023-02-28T02:08:21.083Z,61.54
2023-02-28T02:10:59.732Z,60.73
2023-02-28T02:13:53.240Z,59.81
2023-02-28T02:16:58.871Z,60.67
2023-02-28T02:20:08.854Z,60.78
2023-02-28T02:23:00.311Z,60.22
2023-02-28T02:25:54.776Z,60.28
2023-02-28T02:28:42.182Z,60.42
2023-02-28T02:31:28.835Z,60.64
2023-02-28T02:34:49.496Z,62.45
2023-02-28T02:37:41.508Z,62.53
2023-02-28T02:40:38.483Z,61.82
2023-02-28T02:43:19.641Z,60.59
2023-02-28T02:45:54.898Z,60.78
2023-02-28T02:48:29.457Z,62.46
2023-02-28T02:51:01.630Z,62.50
2023-02-28T02:53:44.498Z,63.73
2023-02-28T02:56:13.088Z,62.83
2023-02-28T02:58:44.425Z,62.87
2023-02-28T03:01:28.629Z,63.31
2023-02-28T03:04:02.423Z,63.47
2023-02-28T03:06:29.241Z,62.89
2023-02-28T03:08:55.798Z,62.12
2023-02-28T03:11:23.157Z,61.51
2023-02-28T03:14:10.261Z,60.96
2023-02-28T03:17:21.434Z,61.04
2023-02-28T03:19:53.504Z,61.09
2023-02-28T03:22:35.220Z,60.52
2023-02-28T03:25:12.481Z,60.14
2023-02-28T03:28:09.998Z,59.57
2023-02-28T03:30:49.038Z,57.21
2023-02-28T03:33:23.526Z,56.35
2023-02-28T03:35:59.593Z,57.88
2023-02-28T03:38:36.441Z,59.85
2023-02-28T03:41:28.433Z,61.67
2023-02-28T03:44:06.614Z,66.45
2023-02-28T03:46:40.745Z,69.56
2023-02-28T03:49:23.459Z,67.52
2023-02-28T03:51:54.118Z,65.25
2023-02-28T03:54:29.662Z,64.53
2023-02-28T03:57:27.945Z,64.07
2023-02-28T04:00:06.348Z,62.92
2023-02-28T04:02:33.611Z,62.30
2023-02-28T04:05:01.492Z,62.12
2023-02-28T04:07:32.548Z,61.60
2023-02-28T04:09:59.924Z,61.14
2023-02-28T04:12:27.050Z,61.14
2023-02-28T04:14:53.591Z,61.13
2023-02-28T04:17:20.012Z,61.43
2023-02-28T04:19:46.524Z,60.96
2023-02-28T04:22:13.917Z,60.92
2023-02-28T04:24:43.417Z,60.56
2023-02-28T04:27:10.322Z,60.29
2023-02-28T04:29:37.183Z,60.33
2023-02-28T04:32:04.665Z,59.52
2023-02-28T04:34:33.164Z,57.16
2023-02-28T04:37:12.267Z,55.51
2023-02-28T04:39:40.918Z,56.87
2023-02-28T04:42:08.199Z,58.69
2023-02-28T04:44:34.845Z,60.70
2023-02-28T04:47:01.390Z,64.34
2023-02-28T04:49:27.883Z,69.48
2023-02-28T04:51:54.322Z,68.10
2023-02-28T04:54:20.828Z,66.35
2023-02-28T04:56:50.114Z,63.98
2023-02-28T04:59:16.765Z,62.98
2023-02-28T05:01:48.134Z,62.21
2023-02-28T05:04:15.329Z,61.77
2023-02-28T05:06:42.128Z,61.81
2023-02-28T05:09:14.043Z,61.37
2023-02-28T05:11:41.275Z,60.74
2023-02-28T05:14:13.564Z,60.32
2023-02-28T05:16:40.348Z,59.86
2023-02-28T05:19:07.222Z,59.78
2023-02-28T05:21:38.465Z,60.45
2023-02-28T05:24:12.299Z,60.63
2023-02-28T05:26:42.008Z,59.94
2023-02-28T05:29:12.199Z,59.95
2023-02-28T05:31:38.960Z,59.49
2023-02-28T05:34:05.746Z,57.25
2023-02-28T05:36:33.041Z,55.58
2023-02-28T05:38:59.701Z,56.92
2023-02-28T05:41:26.587Z,59.20
2023-02-28T05:43:52.990Z,60.84
2023-02-28T05:46:19.415Z,62.89
2023-02-28T05:48:48.708Z,68.13
2023-02-28T05:51:15.619Z,69.13
2023-02-28T05:53:42.064Z,67.25
2023-02-28T05:56:08.531Z,65.62
2023-02-28T05:58:35.096Z,64.92
2023-02-28T06:01:41.077Z,63.95
2023-02-28T06:04:16.705Z,62.40
2023-02-28T06:06:52.467Z,61.36
2023-02-28T06:09:19.686Z,61.26
2023-02-28T06:11:46.309Z,61.05
2023-02-28T06:14:18.472Z,60.61
2023-02-28T06:16:45.515Z,59.97
2023-02-28T06:19:11.973Z,59.83
2023-02-28T06:21:38.803Z,59.60
2023-02-28T06:24:05.770Z,59.79
2023-02-28T06:26:32.522Z,60.24
2023-02-28T06:28:59.040Z,60.59
2023-02-28T06:31:26.311Z,60.67
2023-02-28T06:33:52.795Z,60.00
2023-02-28T06:36:19.311Z,59.90
2023-02-28T06:38:46.240Z,60.43
2023-02-28T06:41:12.789Z,61.09
2023-02-28T06:43:42.651Z,60.92
2023-02-28T06:46:14.327Z,60.72
2023-02-28T06:48:43.207Z,60.15
2023-02-28T06:51:24.627Z,58.15
2023-02-28T06:53:51.922Z,56.59
2023-02-28T06:56:20.639Z,56.89
2023-02-28T06:58:50.070Z,57.80
2023-02-28T07:01:17.480Z,59.59
2023-02-28T07:03:43.887Z,61.35
2023-02-28T07:06:10.719Z,64.14
2023-02-28T07:08:37.531Z,66.64
2023-02-28T07:11:04.738Z,64.87
2023-02-28T07:13:31.917Z,63.23
2023-02-28T07:16:05.920Z,61.79
2023-02-28T07:18:32.838Z,61.49
2023-02-28T07:21:04.367Z,62.56
2023-02-28T07:23:31.418Z,62.18
2023-02-28T07:25:58.185Z,61.00
2023-02-28T07:28:26.126Z,61.30
2023-02-28T07:30:52.758Z,60.59
2023-02-28T07:33:19.337Z,58.26
2023-02-28T07:35:45.933Z,56.35
2023-02-28T07:38:14.124Z,56.88
2023-02-28T07:40:40.689Z,58.65
2023-02-28T07:43:07.121Z,60.45
2023-02-28T07:45:34.964Z,61.27
2023-02-28T07:48:02.682Z,62.42
2023-02-28T07:50:32.349Z,65.32
2023-02-28T07:52:59.791Z,65.36
2023-02-28T07:55:26.785Z,63.05
2023-02-28T07:57:53.240Z,60.84
2023-02-28T08:00:20.415Z,58.00
2023-02-28T08:02:46.887Z,55.97
2023-02-28T08:05:13.532Z,56.73
2023-02-28T08:07:40.010Z,58.07
2023-02-28T08:10:09.110Z,59.03
2023-02-28T08:12:35.824Z,60.05
2023-02-28T08:15:02.722Z,60.70
2023-02-28T08:17:29.283Z,61.06
2023-02-28T08:19:55.728Z,61.71
2023-02-28T08:22:22.355Z,61.58
2023-02-28T08:24:49.664Z,61.85
2023-02-28T08:27:16.116Z,65.35
2023-02-28T08:29:42.550Z,64.96
2023-02-28T08:32:14.713Z,62.05
2023-02-28T08:34:48.061Z,58.31
2023-02-28T08:37:14.812Z,54.97
2023-02-28T08:39:43.831Z,55.27
2023-02-28T08:42:10.269Z,56.77
2023-02-28T08:44:36.772Z,56.76
2023-02-28T08:47:03.205Z,56.97
2023-02-28T08:49:29.787Z,57.11
2023-02-28T08:51:57.635Z,57.59
2023-02-28T08:54:24.886Z,57.76
2023-02-28T08:56:51.576Z,57.79
2023-02-28T08:59:18.088Z,58.49
2023-02-28T09:01:44.479Z,58.09
2023-02-28T09:04:12.450Z,57.56
2023-02-28T09:06:39.930Z,57.68
2023-02-28T09:09:07.757Z,58.00
2023-02-28T09:11:35.829Z,57.52
2023-02-28T09:14:03.799Z,57.18
2023-02-28T09:16:33.489Z,57.49
2023-02-28T09:19:01.039Z,57.00
2023-02-28T09:21:28.600Z,56.66
2023-02-28T09:23:55.509Z,56.66
2023-02-28T09:26:32.564Z,56.49
2023-02-28T09:29:05.433Z,56.58
2023-02-28T09:31:31.909Z,56.43
2023-02-28T09:33:59.711Z,56.31
2023-02-28T09:36:37.987Z,56.45
2023-02-28T09:39:12.658Z,56.31
2023-02-28T09:41:50.833Z,56.24
2023-02-28T09:44:37.433Z,56.21
2023-02-28T09:47:29.471Z,56.03
2023-02-28T09:50:03.746Z,55.99
2023-02-28T09:52:32.937Z,56.03
2023-02-28T09:55:24.335Z,55.50
2023-02-28T09:57:52.417Z,56.23
2023-02-28T10:00:27.978Z,54.99
2023-02-28T10:03:19.996Z,54.80
2023-02-28T10:05:54.900Z,54.59
2023-02-28T10:08:32.838Z,54.36
2023-02-28T10:11:06.985Z,54.55
2023-02-28T10:13:58.382Z,54.39
2023-02-28T10:17:10.874Z,54.48
2023-02-28T10:19:49.383Z,54.41
2023-02-28T10:22:34.635Z,53.86
2023-02-28T10:25:06.809Z,53.65
2023-02-28T10:27:33.466Z,53.44
2023-02-28T10:30:02.353Z,53.28
2023-02-28T10:32:35.661Z,52.85
2023-02-28T10:35:23.795Z,52.17
2023-02-28T10:38:00.200Z,52.61
2023-02-28T10:40:36.106Z,52.76
2023-02-28T10:43:15.629Z,52.20
2023-02-28T10:46:03.375Z,52.08
2023-02-28T10:49:22.279Z,51.77
2023-02-28T10:51:59.300Z,51.23
2023-02-28T10:54:38.147Z,50.93
2023-02-28T10:57:26.781Z,50.63
2023-02-28T11:00:14.336Z,50.29
2023-02-28T11:02:43.387Z,50.24
2023-02-28T11:05:36.731Z,50.41
2023-02-28T11:08:13.052Z,50.47
2023-02-28T11:10:40.606Z,50.43
2023-02-28T11:13:07.131Z,49.64
2023-02-28T11:15:35.676Z,49.08
2023-02-28T11:18:32.795Z,48.91
2023-02-28T11:21:02.418Z,48.94
2023-02-28T11:23:34.825Z,48.38
2023-02-28T11:26:05.657Z,48.33
2023-02-28T11:28:41.974Z,48.02
2023-02-28T11:31:14.282Z,47.67
2023-02-28T11:33:51.834Z,47.85
2023-02-28T11:36:29.418Z,48.02
2023-02-28T11:39:12.793Z,47.65
2023-02-28T11:42:16.609Z,47.09
2023-02-28T11:45:24.319Z,47.48
2023-02-28T11:48:04.899Z,46.47
2023-02-28T11:50:42.728Z,45.37
2023-02-28T11:53:52.977Z,45.32
2023-02-28T11:56:44.861Z,45.94
2023-02-28T11:59:55.737Z,45.95
2023-02-28T12:02:51.392Z,46.02
2023-02-28T12:05:40.415Z,45.59
2023-02-28T12:09:00.381Z,46.04
2023-02-28T12:11:53.832Z,46.07
2023-02-28T12:14:53.809Z,45.81
2023-02-28T12:17:55.518Z,45.61
2023-02-28T12:20:37.476Z,45.26
2023-02-28T12:23:31.713Z,45.08
2023-02-28T12:26:17.817Z,45.49
2023-02-28T12:29:05.519Z,45.57
2023-02-28T12:32:00.038Z,45.89
2023-02-28T12:34:43.177Z,45.88
2023-02-28T12:37:25.497Z,45.60
2023-02-28T12:40:03.618Z,45.59
2023-02-28T12:42:42.784Z,45.69
2023-02-28T12:45:51.928Z,45.71
2023-02-28T12:48:29.936Z,45.66
2023-02-28T12:50:58.265Z,44.82
2023-02-28T12:53:57.106Z,44.90
2023-02-28T12:56:51.496Z,44.98
2023-02-28T12:59:58.844Z,45.01
2023-02-28T13:02:52.564Z,45.22
2023-02-28T13:05:45.384Z,45.63
2023-02-28T13:09:00.327Z,45.90
2023-02-28T13:11:42.388Z,45.98
2023-02-28T13:14:35.789Z,45.91
2023-02-28T13:17:13.144Z,46.14
2023-02-28T13:19:46.108Z,46.13
2023-02-28T13:22:38.476Z,46.28
2023-02-28T13:25:23.421Z,46.31
2023-02-28T13:27:56.908Z,46.16
2023-02-28T13:30:54.931Z,46.51
2023-02-28T13:33:35.749Z,46.63
2023-02-28T13:36:14.781Z,46.38
2023-02-28T13:38:49.361Z,46.28
2023-02-28T13:41:43.208Z,46.48
2023-02-28T13:44:15.882Z,46.46
2023-02-28T13:47:21.492Z,46.58
2023-02-28T13:49:49.677Z,46.82
2023-02-28T13:52:22.236Z,46.78
2023-02-28T13:55:27.921Z,46.76
2023-02-28T13:58:27.403Z,47.02
2023-02-28T14:01:02.673Z,47.01
2023-02-28T14:04:12.870Z,46.82
2023-02-28T14:06:57.990Z,46.83
2023-02-28T14:09:39.769Z,46.77
2023-02-28T14:12:51.027Z,47.05
2023-02-28T14:15:42.240Z,47.49
2023-02-28T14:18:31.415Z,47.58
2023-02-28T14:21:07.820Z,47.76
2023-02-28T14:23:57.905Z,47.95
2023-02-28T14:27:04.623Z,48.16
2023-02-28T14:30:02.058Z,48.42
2023-02-28T14:32:38.617Z,48.67
2023-02-28T14:35:40.423Z,48.51
2023-02-28T14:38:21.817Z,48.72
2023-02-28T14:40:53.740Z,49.02
2023-02-28T14:43:27.917Z,49.13
2023-02-28T14:45:59.836Z,49.24
2023-02-28T14:48:27.399Z,49.48
2023-02-28T14:51:00.111Z,49.66
2023-02-28T14:53:35.469Z,49.90
2023-02-28T14:56:02.572Z,50.00
2023-02-28T14:58:33.447Z,50.06
2023-02-28T15:01:04.869Z,50.38
2023-02-28T15:03:36.151Z,50.46
2023-02-28T15:06:18.254Z,50.68
2023-02-28T15:08:46.179Z,50.80
2023-02-28T15:11:19.667Z,50.93
2023-02-28T15:13:51.309Z,51.19
2023-02-28T15:16:22.518Z,51.36
2023-02-28T15:19:01.462Z,51.46
2023-02-28T15:21:42.317Z,51.77
2023-02-28T15:24:31.142Z,51.97
2023-02-28T15:27:04.873Z,52.33
2023-02-28T15:29:49.666Z,52.58
2023-02-28T15:32:31.619Z,52.88
2023-02-28T15:35:27.184Z,53.16
2023-02-28T15:38:14.884Z,53.38
2023-02-28T15:40:54.064Z,53.59
2023-02-28T15:43:35.580Z,53.83
2023-02-28T15:46:10.415Z,54.06
2023-02-28T15:48:46.652Z,54.23
2023-02-28T15:51:22.814Z,54.49
2023-02-28T15:54:05.134Z,54.82
2023-02-28T15:56:38.755Z,54.98
2023-02-28T15:59:18.996Z,55.19
2023-02-28T16:01:46.225Z,55.45
2023-02-28T16:04:20.455Z,55.72
2023-02-28T16:07:02.526Z,55.82
2023-02-28T16:09:32.553Z,56.09
2023-02-28T16:12:03.581Z,56.58
2023-02-28T16:14:31.344Z,56.85
2023-02-28T16:17:05.744Z,57.23
2023-02-28T16:19:34.590Z,57.45
2023-02-28T16:22:02.013Z,57.87
2023-02-28T16:24:29.001Z,58.12
2023-02-28T16:26:58.134Z,58.37
2023-02-28T16:29:31.518Z,58.49
2023-02-28T16:31:58.437Z,58.64
2023-02-28T16:34:25.617Z,58.86
2023-02-28T16:36:53.507Z,58.92
2023-02-28T16:39:26.066Z,59.15
2023-02-28T16:41:52.663Z,59.35
2023-02-28T16:44:34.866Z,59.64
2023-02-28T16:47:03.939Z,59.72
2023-02-28T16:49:30.784Z,59.91
2023-02-28T16:51:57.788Z,60.16
2023-02-28T16:54:24.425Z,60.49
2023-02-28T16:56:51.191Z,60.80
2023-02-28T16:59:24.319Z,61.05
2023-02-28T17:01:52.277Z,64.47
2023-02-28T17:04:19.899Z,68.21
2023-02-28T17:06:47.101Z,67.74
2023-02-28T17:09:28.250Z,64.88
2023-02-28T17:11:57.362Z,63.07
2023-02-28T17:14:23.894Z,58.62
2023-02-28T17:16:50.708Z,54.95
2023-02-28T17:19:18.238Z,54.49
2023-02-28T17:21:45.278Z,54.99
2023-02-28T17:24:14.382Z,55.77
2023-02-28T17:26:43.510Z,56.60
2023-02-28T17:29:22.045Z,57.59
2023-02-28T17:31:48.722Z,57.99
2023-02-28T17:34:18.612Z,58.80
2023-02-28T17:36:48.359Z,59.18
2023-02-28T17:39:24.199Z,59.66
2023-02-28T17:41:52.954Z,59.98
2023-02-28T17:44:21.122Z,60.54
2023-02-28T17:46:48.360Z,63.30
2023-02-28T17:49:15.372Z,66.67
2023-02-28T17:51:42.276Z,66.10
2023-02-28T17:54:08.750Z,64.24
2023-02-28T17:56:35.596Z,62.28
2023-02-28T17:59:03.502Z,60.30
2023-02-28T18:01:30.287Z,58.14
2023-02-28T18:03:57.110Z,56.53
2023-02-28T18:06:28.910Z,56.48
2023-02-28T18:08:55.676Z,56.81
2023-02-28T18:11:23.907Z,57.29
2023-02-28T18:13:55.033Z,57.90
2023-02-28T18:16:22.508Z,58.40
2023-02-28T18:18:49.909Z,58.84
2023-02-28T18:21:17.549Z,59.37
2023-02-28T18:23:47.998Z,59.75
2023-02-28T18:26:17.820Z,60.01
2023-02-28T18:28:46.113Z,60.43
2023-02-28T18:31:17.416Z,60.76
2023-02-28T18:33:48.222Z,62.50
2023-02-28T18:36:15.654Z,66.03
2023-02-28T18:38:43.656Z,67.45
2023-02-28T18:41:11.614Z,66.18
2023-02-28T18:43:39.053Z,64.66
2023-02-28T18:46:09.254Z,62.36
2023-02-28T18:48:36.417Z,58.82
2023-02-28T18:51:12.160Z,55.51
2023-02-28T18:53:40.633Z,55.53
2023-02-28T18:56:11.086Z,56.63
2023-02-28T18:58:38.441Z,57.82
2023-02-28T19:01:26.377Z,58.93
2023-02-28T19:03:52.927Z,59.61
2023-02-28T19:06:20.007Z,60.61
2023-02-28T19:08:57.187Z,61.48
2023-02-28T19:11:25.214Z,62.14
2023-02-28T19:13:52.256Z,63.75
2023-02-28T19:16:21.453Z,64.79
2023-02-28T19:18:49.486Z,63.69
2023-02-28T19:21:19.939Z,61.95
2023-02-28T19:23:47.843Z,60.62
2023-02-28T19:26:22.858Z,59.98
2023-02-28T19:28:49.671Z,57.77
2023-02-28T19:31:23.882Z,57.01
2023-02-28T19:33:52.315Z,58.01
2023-02-28T19:36:20.749Z,59.05
2023-02-28T19:38:48.205Z,60.12
2023-02-28T19:41:17.341Z,61.10
2023-02-28T19:43:44.293Z,61.81
2023-02-28T19:46:12.841Z,62.91
2023-02-28T19:48:41.825Z,64.35
2023-02-28T19:51:11.822Z,63.57
2023-02-28T19:53:40.868Z,63.55
2023-02-28T19:56:09.051Z,62.00
2023-02-28T19:58:36.721Z,60.77
2023-02-28T20:01:17.463Z,60.71
2023-02-28T20:03:48.858Z,59.42
2023-02-28T20:06:15.688Z,57.23
2023-02-28T20:08:42.860Z,57.14
2023-02-28T20:11:14.464Z,58.67
2023-02-28T20:13:41.922Z,60.27
2023-02-28T20:16:12.518Z,61.36
2023-02-28T20:18:41.453Z,63.13
2023-02-28T20:21:09.692Z,64.54
2023-02-28T20:23:41.272Z,63.18
2023-02-28T20:26:09.290Z,61.37
2023-02-28T20:28:37.076Z,60.45
2023-02-28T20:31:15.962Z,58.81
2023-02-28T20:33:46.248Z,57.60
2023-02-28T20:36:15.071Z,59.28
2023-02-28T20:38:42.766Z,61.02
2023-02-28T20:41:09.340Z,62.23
2023-02-28T20:43:36.257Z,64.51
2023-02-28T20:46:03.364Z,63.86
2023-02-28T20:48:31.779Z,62.69
2023-02-28T20:50:59.553Z,61.45
2023-02-28T20:53:27.571Z,60.34
2023-02-28T20:56:13.064Z,58.81
2023-02-28T20:58:39.708Z,58.95
2023-02-28T21:01:16.364Z,60.42
2023-02-28T21:03:48.931Z,62.07
2023-02-28T21:06:19.429Z,64.60
2023-02-28T21:08:45.930Z,64.67
2023-02-28T21:11:23.426Z,63.58
2023-02-28T21:13:51.259Z,63.06
2023-02-28T21:16:21.988Z,61.71
2023-02-28T21:18:49.562Z,61.07
2023-02-28T21:21:20.740Z,60.86
2023-02-28T21:23:48.358Z,60.04
2023-02-28T21:26:18.786Z,59.68
2023-02-28T21:28:58.528Z,57.54
2023-02-28T21:31:28.567Z,56.65
2023-02-28T21:33:57.419Z,57.98
2023-02-28T21:36:32.021Z,59.59
2023-02-28T21:39:03.598Z,60.42
2023-02-28T21:41:30.523Z,63.16
2023-02-28T21:43:56.909Z,65.38
2023-02-28T21:46:27.276Z,65.31
2023-02-28T21:48:55.584Z,63.92
2023-02-28T21:51:30.564Z,62.88
2023-02-28T21:53:59.290Z,61.75
2023-02-28T21:56:30.502Z,61.14
2023-02-28T21:59:00.492Z,60.23
2023-02-28T22:01:43.971Z,60.10
2023-02-28T22:04:20.635Z,60.31
2023-02-28T22:06:58.520Z,60.50
2023-02-28T22:09:25.479Z,60.17
2023-02-28T22:11:51.870Z,60.76
2023-02-28T22:14:18.649Z,60.80
2023-02-28T22:16:51.865Z,60.93
2023-02-28T22:19:20.501Z,61.96
2023-02-28T22:21:47.106Z,62.56
2023-02-28T22:24:14.038Z,62.37
2023-02-28T22:26:40.541Z,62.44
2023-02-28T22:29:07.330Z,62.19
2023-02-28T22:31:35.898Z,62.43
2023-02-28T22:34:07.131Z,62.70
2023-02-28T22:36:34.960Z,63.06
2023-02-28T22:39:03.425Z,63.12
2023-02-28T22:41:29.948Z,63.46
2023-02-28T22:44:04.113Z,64.99
2023-02-28T22:46:34.283Z,66.46
2023-02-28T22:49:03.955Z,66.83
2023-02-28T22:51:31.040Z,67.48
2023-02-28T22:53:58.035Z,67.75
2023-02-28T22:56:29.444Z,67.04
2023-02-28T22:59:08.364Z,66.10
2023-02-28T23:01:37.370Z,65.31
2023-02-28T23:04:04.207Z,64.46
2023-02-28T23:06:37.435Z,64.67
2023-02-28T23:09:08.873Z,65.04
2023-02-28T23:11:43.100Z,65.13
2023-02-28T23:14:13.441Z,65.14
2023-02-28T23:16:43.085Z,65.43
2023-02-28T23:19:14.585Z,65.28
2023-02-28T23:21:44.286Z,65.48
2023-02-28T23:24:14.820Z,65.83
2023-02-28T23:26:45.766Z,66.22
2023-02-28T23:29:15.509Z,66.57
2023-02-28T23:31:42.012Z,66.11
2023-02-28T23:34:10.111Z,65.85
2023-02-28T23:36:45.432Z,66.75
2023-02-28T23:39:15.971Z,67.22
2023-02-28T23:41:43.068Z,66.65
2023-02-28T23:44:16.201Z,66.42
2023-02-28T23:46:46.147Z,66.20
2023-02-28T23:49:15.292Z,65.75
2023-02-28T23:51:41.729Z,65.28
2023-02-28T23:54:08.256Z,64.46
2023-02-28T23:56:34.694Z,64.48
2023-02-28T23:59:01.210Z,64.08
